sensor_id;sensor_type;location;lat;lon;timestamp;pressure;altitude;pressure_sealevel;temperature;humidity
21760;BME280;11041;50.854;20.580;2022-08-21T00:34:52;98230.38;;;20.14;75.90
21760;BME280;11041;50.854;20.580;2022-08-21T00:37:20;98227.56;;;20.14;75.89
21760;BME280;11041;50.854;20.580;2022-08-21T00:39:47;98237.19;;;20.20;75.73
21760;BME280;11041;50.854;20.580;2022-08-21T00:42:15;98232.38;;;20.17;75.88
21760;BME280;11041;50.854;20.580;2022-08-21T00:44:45;98239.19;;;20.24;75.79
21760;BME280;11041;50.854;20.580;2022-08-21T00:47:13;98239.97;;;20.24;75.70
21760;BME280;11041;50.854;20.580;2022-08-21T00:49:40;98234.78;;;20.22;75.67
21760;BME280;11041;50.854;20.580;2022-08-21T00:52:15;98232.00;;;20.26;75.55
21760;BME280;11041;50.854;20.580;2022-08-21T00:54:46;98238.00;;;20.32;75.50
21760;BME280;11041;50.854;20.580;2022-08-21T00:57:24;98230.44;;;20.29;75.31
21760;BME280;11041;50.854;20.580;2022-08-21T00:59:56;98226.06;;;20.31;74.91
21760;BME280;11041;50.854;20.580;2022-08-21T01:02:25;98229.63;;;20.32;75.04
21760;BME280;11041;50.854;20.580;2022-08-21T01:04:52;98223.25;;;20.28;74.92
21760;BME280;11041;50.854;20.580;2022-08-21T01:07:18;98227.25;;;20.30;74.81
21760;BME280;11041;50.854;20.580;2022-08-21T01:09:47;98214.88;;;20.24;74.74
21760;BME280;11041;50.854;20.580;2022-08-21T01:12:15;98220.06;;;20.26;74.75
21760;BME280;11041;50.854;20.580;2022-08-21T01:14:43;98225.22;;;20.27;74.92
21760;BME280;11041;50.854;20.580;2022-08-21T01:17:13;98212.88;;;20.25;74.96
21760;BME280;11041;50.854;20.580;2022-08-21T01:19:42;98204.88;;;20.19;74.98
21760;BME280;11041;50.854;20.580;2022-08-21T01:22:09;98205.69;;;20.16;74.98
21760;BME280;11041;50.854;20.580;2022-08-21T01:24:36;98200.09;;;20.16;75.15
21760;BME280;11041;50.854;20.580;2022-08-21T01:27:03;98199.72;;;20.18;74.99
21760;BME280;11041;50.854;20.580;2022-08-21T01:29:57;98196.91;;;20.14;75.06
21760;BME280;11041;50.854;20.580;2022-08-21T01:32:25;98203.28;;;20.11;75.20
21760;BME280;11041;50.854;20.580;2022-08-21T01:34:52;98189.69;;;20.03;75.43
21760;BME280;11041;50.854;20.580;2022-08-21T01:37:21;98192.88;;;20.05;75.54
21760;BME280;11041;50.854;20.580;2022-08-21T01:39:48;98190.06;;;19.97;75.58
21760;BME280;11041;50.854;20.580;2022-08-21T01:42:15;98183.69;;;19.97;75.87
21760;BME280;11041;50.854;20.580;2022-08-21T01:44:43;98180.91;;;19.97;75.83
21760;BME280;11041;50.854;20.580;2022-08-21T01:47:12;98171.28;;;19.91;75.91
21760;BME280;11041;50.854;20.580;2022-08-21T01:49:42;98172.47;;;19.86;76.01
21760;BME280;11041;50.854;20.580;2022-08-21T01:52:09;98180.06;;;19.89;76.06
21760;BME280;11041;50.854;20.580;2022-08-21T01:54:37;98170.50;;;19.87;76.12
21760;BME280;11041;50.854;20.580;2022-08-21T01:57:05;98166.47;;;19.81;76.05
21760;BME280;11041;50.854;20.580;2022-08-21T01:59:34;98166.84;;;19.79;76.22
21760;BME280;11041;50.854;20.580;2022-08-21T02:02:01;98153.72;;;19.72;76.38
21760;BME280;11041;50.854;20.580;2022-08-21T02:04:27;98162.44;;;19.71;76.38
21760;BME280;11041;50.854;20.580;2022-08-21T02:06:54;98160.03;;;19.69;76.55
21760;BME280;11041;50.854;20.580;2022-08-21T02:09:21;98167.97;;;19.67;76.55
21760;BME280;11041;50.854;20.580;2022-08-21T02:11:48;98178.31;;;19.67;76.66
21760;BME280;11041;50.854;20.580;2022-08-21T02:14:15;98162.34;;;19.56;76.78
21760;BME280;11041;50.854;20.580;2022-08-21T02:16:44;98166.34;;;19.59;76.74
21760;BME280;11041;50.854;20.580;2022-08-21T02:19:14;98164.75;;;19.58;76.87
21760;BME280;11041;50.854;20.580;2022-08-21T02:21:42;98159.53;;;19.49;76.85
21760;BME280;11041;50.854;20.580;2022-08-21T02:24:10;98165.88;;;19.50;76.96
21760;BME280;11041;50.854;20.580;2022-08-21T02:26:37;98166.66;;;19.50;76.80
21760;BME280;11041;50.854;20.580;2022-08-21T02:29:04;98173.44;;;19.53;76.88
21760;BME280;11041;50.854;20.580;2022-08-21T02:31:31;98162.69;;;19.48;77.00
21760;BME280;11041;50.854;20.580;2022-08-21T02:33:58;98168.66;;;19.46;76.74
21760;BME280;11041;50.854;20.580;2022-08-21T02:36:24;98163.09;;;19.50;77.09
21760;BME280;11041;50.854;20.580;2022-08-21T02:38:50;98154.31;;;19.44;76.94
21760;BME280;11041;50.854;20.580;2022-08-21T02:41:20;98167.84;;;19.46;77.08
21760;BME280;11041;50.854;20.580;2022-08-21T02:43:47;98169.03;;;19.45;77.21
21760;BME280;11041;50.854;20.580;2022-08-21T02:46:19;98168.22;;;19.41;77.44
21760;BME280;11041;50.854;20.580;2022-08-21T02:48:46;98163.81;;;19.36;77.27
21760;BME280;11041;50.854;20.580;2022-08-21T02:51:18;98166.59;;;19.36;77.53
21760;BME280;11041;50.854;20.580;2022-08-21T02:53:47;98159.78;;;19.30;77.71
21760;BME280;11041;50.854;20.580;2022-08-21T02:56:17;98165.31;;;19.26;77.77
21760;BME280;11041;50.854;20.580;2022-08-21T02:58:49;98170.16;;;19.29;78.04
21760;BME280;11041;50.854;20.580;2022-08-21T03:01:18;98163.31;;;19.23;77.86
21760;BME280;11041;50.854;20.580;2022-08-21T03:03:47;98161.31;;;19.20;78.26
21760;BME280;11041;50.854;20.580;2022-08-21T03:06:21;98156.53;;;19.21;78.41
21760;BME280;11041;50.854;20.580;2022-08-21T03:08:48;98159.34;;;19.21;78.57
21760;BME280;11041;50.854;20.580;2022-08-21T03:11:15;98156.53;;;19.17;78.59
21760;BME280;11041;50.854;20.580;2022-08-21T03:13:42;98158.91;;;19.19;78.65
21760;BME280;11041;50.854;20.580;2022-08-21T03:16:09;98160.53;;;19.20;78.52
21760;BME280;11041;50.854;20.580;2022-08-21T03:18:36;98169.22;;;19.14;78.74
21760;BME280;11041;50.854;20.580;2022-08-21T03:21:04;98172.47;;;19.20;78.88
21760;BME280;11041;50.854;20.580;2022-08-21T03:23:31;98167.28;;;19.19;78.84
21760;BME280;11041;50.854;20.580;2022-08-21T03:25:58;98164.47;;;19.19;79.00
21760;BME280;11041;50.854;20.580;2022-08-21T03:28:25;98160.88;;;19.14;78.96
21760;BME280;11041;50.854;20.580;2022-08-21T03:30:52;98170.47;;;19.17;79.09
21760;BME280;11041;50.854;20.580;2022-08-21T03:33:21;98168.84;;;19.12;79.22
21760;BME280;11041;50.854;20.580;2022-08-21T03:35:58;98173.25;;;19.17;79.05
21760;BME280;11041;50.854;20.580;2022-08-21T03:38:29;98162.09;;;19.17;79.30
21760;BME280;11041;50.854;20.580;2022-08-21T03:40:56;98156.44;;;19.06;79.16
21760;BME280;11041;50.854;20.580;2022-08-21T03:43:23;98162.44;;;19.12;79.07
21760;BME280;11041;50.854;20.580;2022-08-21T03:45:50;98161.22;;;19.06;79.41
21760;BME280;11041;50.854;20.580;2022-08-21T03:48:16;98156.47;;;19.10;79.42
21760;BME280;11041;50.854;20.580;2022-08-21T03:50:44;98161.66;;;19.11;79.60
21760;BME280;11041;50.854;20.580;2022-08-21T03:53:14;98164.84;;;19.13;79.73
21760;BME280;11041;50.854;20.580;2022-08-21T03:55:41;98157.66;;;19.09;79.87
21760;BME280;11041;50.854;20.580;2022-08-21T03:58:08;98172.41;;;19.16;79.63
21760;BME280;11041;50.854;20.580;2022-08-21T04:00:34;98174.81;;;19.18;79.91
21760;BME280;11041;50.854;20.580;2022-08-21T04:03:01;98176.03;;;19.21;79.89
21760;BME280;11041;50.854;20.580;2022-08-21T04:05:27;98175.66;;;19.22;79.83
21760;BME280;11041;50.854;20.580;2022-08-21T04:08:00;98173.63;;;19.19;79.65
21760;BME280;11041;50.854;20.580;2022-08-21T04:10:29;98185.22;;;19.25;79.38
21760;BME280;11041;50.854;20.580;2022-08-21T04:12:57;98185.66;;;19.27;79.47
21760;BME280;11041;50.854;20.580;2022-08-21T04:15:26;98185.25;;;19.28;79.42
21760;BME280;11041;50.854;20.580;2022-08-21T04:17:53;98180.03;;;19.23;79.39
21760;BME280;11041;50.854;20.580;2022-08-21T04:20:22;98175.66;;;19.22;79.51
21760;BME280;11041;50.854;20.580;2022-08-21T04:22:50;98185.66;;;19.30;79.51
21760;BME280;11041;50.854;20.580;2022-08-21T04:25:22;98186.91;;;19.36;79.71
21760;BME280;11041;50.854;20.580;2022-08-21T04:27:49;98187.69;;;19.37;79.40
21760;BME280;11041;50.854;20.580;2022-08-21T04:30:17;98193.28;;;19.41;79.36
21760;BME280;11041;50.854;20.580;2022-08-21T04:32:49;98190.91;;;19.39;79.19
21760;BME280;11041;50.854;20.580;2022-08-21T04:35:21;98188.13;;;19.43;79.33
21760;BME280;11041;50.854;20.580;2022-08-21T04:37:49;98187.34;;;19.42;79.48
21760;BME280;11041;50.854;20.580;2022-08-21T04:40:18;98201.31;;;19.53;79.38
21760;BME280;11041;50.854;20.580;2022-08-21T04:42:50;98205.34;;;19.55;79.18
21760;BME280;11041;50.854;20.580;2022-08-21T04:45:32;98200.97;;;19.58;78.88
21760;BME280;11041;50.854;20.580;2022-08-21T04:48:03;98210.56;;;19.64;79.31
21760;BME280;11041;50.854;20.580;2022-08-21T04:53:14;98192.63;;;19.62;78.81
21760;BME280;11041;50.854;20.580;2022-08-21T04:55:42;98203.88;;;19.72;79.27
21760;BME280;11041;50.854;20.580;2022-08-21T04:58:13;98206.28;;;19.77;78.98
21760;BME280;11041;50.854;20.580;2022-08-21T05:00:41;98203.53;;;19.85;78.71
21760;BME280;11041;50.854;20.580;2022-08-21T05:03:10;98192.81;;;19.87;78.48
21760;BME280;11041;50.854;20.580;2022-08-21T05:05:38;98187.22;;;19.94;78.02
21760;BME280;11041;50.854;20.580;2022-08-21T05:08:07;98188.47;;;19.96;78.67
21760;BME280;11041;50.854;20.580;2022-08-21T05:10:35;98203.28;;;20.11;78.82
21760;BME280;11041;50.854;20.580;2022-08-21T05:13:02;98205.69;;;20.16;78.82
21760;BME280;11041;50.854;20.580;2022-08-21T05:15:29;98203.28;;;20.18;78.29
21760;BME280;11041;50.854;20.580;2022-08-21T05:17:57;98200.91;;;20.20;78.23
21760;BME280;11041;50.854;20.580;2022-08-21T05:20:23;98202.94;;;20.31;77.90
21760;BME280;11041;50.854;20.580;2022-08-21T05:22:50;98202.56;;;20.36;77.88
21760;BME280;11041;50.854;20.580;2022-08-21T05:25:16;98196.16;;;20.39;77.64
21760;BME280;11041;50.854;20.580;2022-08-21T05:27:43;98202.59;;;20.50;77.63
21760;BME280;11041;50.854;20.580;2022-08-21T05:30:10;98203.81;;;20.56;77.48
21760;BME280;11041;50.854;20.580;2022-08-21T05:32:36;98201.88;;;20.64;76.93
21760;BME280;11041;50.854;20.580;2022-08-21T05:35:06;98201.84;;;20.68;76.04
21760;BME280;11041;50.854;20.580;2022-08-21T05:37:34;98192.31;;;20.69;75.98
21760;BME280;11041;50.854;20.580;2022-08-21T05:40:03;98186.72;;;20.69;75.54
21760;BME280;11041;50.854;20.580;2022-08-21T05:42:30;98191.50;;;20.75;75.53
21760;BME280;11041;50.854;20.580;2022-08-21T05:44:57;98207.06;;;20.80;74.93
21760;BME280;11041;50.854;20.580;2022-08-21T05:47:23;98193.91;;;20.84;74.98
21760;BME280;11041;50.854;20.580;2022-08-21T05:49:50;98192.31;;;20.83;74.66
21760;BME280;11041;50.854;20.580;2022-08-21T05:52:21;98206.28;;;20.90;74.11
21760;BME280;11041;50.854;20.580;2022-08-21T05:54:49;98213.47;;;20.98;74.12
21760;BME280;11041;50.854;20.580;2022-08-21T05:57:16;98205.91;;;21.02;74.30
21760;BME280;11041;50.854;20.580;2022-08-21T05:59:42;98193.09;;;21.01;74.42
21760;BME280;11041;50.854;20.580;2022-08-21T06:02:08;98207.09;;;21.12;74.19
21760;BME280;11041;50.854;20.580;2022-08-21T06:04:38;98199.91;;;21.22;73.69
21760;BME280;11041;50.854;20.580;2022-08-21T06:07:06;98200.31;;;21.24;73.42
21760;BME280;11041;50.854;20.580;2022-08-21T06:09:33;98206.69;;;21.32;72.53
21760;BME280;11041;50.854;20.580;2022-08-21T06:12:09;98209.88;;;21.34;72.18
21760;BME280;11041;50.854;20.580;2022-08-21T06:14:38;98211.88;;;21.40;72.18
21760;BME280;11041;50.854;20.580;2022-08-21T06:17:08;98210.69;;;21.45;72.36
21760;BME280;11041;50.854;20.580;2022-08-21T06:19:37;98207.50;;;21.46;72.40
21760;BME280;11041;50.854;20.580;2022-08-21T06:22:05;98197.13;;;21.51;72.56
21760;BME280;11041;50.854;20.580;2022-08-21T06:24:32;98214.25;;;21.60;71.75
21760;BME280;11041;50.854;20.580;2022-08-21T06:27:05;98213.06;;;21.61;71.43
21760;BME280;11041;50.854;20.580;2022-08-21T06:29:32;98201.09;;;21.53;72.08
21760;BME280;11041;50.854;20.580;2022-08-21T06:32:02;98194.28;;;21.61;72.69
21760;BME280;11041;50.854;20.580;2022-08-21T06:34:28;98200.66;;;21.69;71.88
21760;BME280;11041;50.854;20.580;2022-08-21T06:36:55;98197.47;;;21.70;71.63
21760;BME280;11041;50.854;20.580;2022-08-21T06:39:22;98191.06;;;21.70;71.11
21760;BME280;11041;50.854;20.580;2022-08-21T06:41:48;98202.25;;;21.77;70.88
21760;BME280;11041;50.854;20.580;2022-08-21T06:44:17;98212.59;;;21.87;71.48
21760;BME280;11041;50.854;20.580;2022-08-21T06:46:44;98212.56;;;21.91;71.98
21760;BME280;11041;50.854;20.580;2022-08-21T06:49:11;98204.97;;;21.99;71.83
21760;BME280;11041;50.854;20.580;2022-08-21T06:51:40;98187.75;;;22.07;71.84
21760;BME280;11041;50.854;20.580;2022-08-21T06:54:07;98204.94;;;22.20;70.17
21760;BME280;11041;50.854;20.580;2022-08-21T06:56:33;98192.91;;;22.23;69.95
21760;BME280;11041;50.854;20.580;2022-08-21T06:59:01;98198.47;;;22.30;69.49
21760;BME280;11041;50.854;20.580;2022-08-21T07:01:28;98183.25;;;22.31;70.62
21760;BME280;11041;50.854;20.580;2022-08-21T07:03:54;98188.38;;;22.44;70.50
21760;BME280;11041;50.854;20.580;2022-08-21T07:06:21;98182.34;;;22.52;70.81
21760;BME280;11041;50.854;20.580;2022-08-21T07:08:47;98187.09;;;22.63;69.89
21760;BME280;11041;50.854;20.580;2022-08-21T07:11:20;98188.22;;;22.76;70.06
21760;BME280;11041;50.854;20.580;2022-08-21T07:13:50;98186.53;;;22.82;68.66
21760;BME280;11041;50.854;20.580;2022-08-21T07:16:20;98186.94;;;22.88;69.18
21760;BME280;11041;50.854;20.580;2022-08-21T07:18:47;98192.88;;;22.97;68.12
21760;BME280;11041;50.854;20.580;2022-08-21T07:21:13;98186.06;;;22.98;68.01
21760;BME280;11041;50.854;20.580;2022-08-21T07:23:44;98184.38;;;23.08;68.25
21760;BME280;11041;50.854;20.580;2022-08-21T07:26:15;98194.66;;;23.25;68.69
21760;BME280;11041;50.854;20.580;2022-08-21T07:28:42;98180.63;;;23.29;68.40
21760;BME280;11041;50.854;20.580;2022-08-21T07:31:10;98182.06;;;23.44;66.94
21760;BME280;11041;50.854;20.580;2022-08-21T07:33:40;98180.34;;;23.54;67.20
21760;BME280;11041;50.854;20.580;2022-08-21T07:36:08;98187.44;;;23.69;66.78
21760;BME280;11041;50.854;20.580;2022-08-21T07:38:35;98191.28;;;23.86;66.79
21760;BME280;11041;50.854;20.580;2022-08-21T07:41:04;98198.34;;;23.98;66.24
21760;BME280;11041;50.854;20.580;2022-08-21T07:43:32;98177.81;;;24.05;65.12
21760;BME280;11041;50.854;20.580;2022-08-21T07:45:59;98178.09;;;24.14;64.47
21760;BME280;11041;50.854;20.580;2022-08-21T07:48:25;98171.25;;;24.15;63.58
21760;BME280;11041;50.854;20.580;2022-08-21T07:50:52;98164.84;;;24.18;63.31
21760;BME280;11041;50.854;20.580;2022-08-21T07:53:18;98170.72;;;24.27;63.81
21760;BME280;11041;50.854;20.580;2022-08-21T07:55:45;98165.44;;;24.33;64.10
21760;BME280;11041;50.854;20.580;2022-08-21T07:58:11;98170.53;;;24.41;63.30
21760;BME280;11041;50.854;20.580;2022-08-21T08:00:40;98151.59;;;24.45;63.17
21760;BME280;11041;50.854;20.580;2022-08-21T08:03:07;98162.75;;;24.53;62.73
21760;BME280;11041;50.854;20.580;2022-08-21T08:05:34;98172.72;;;24.57;61.66
21760;BME280;11041;50.854;20.580;2022-08-21T08:08:04;98160.41;;;24.51;61.17
21760;BME280;11041;50.854;20.580;2022-08-21T08:10:30;98169.16;;;24.53;61.39
21760;BME280;11041;50.854;20.580;2022-08-21T08:12:57;98172.34;;;24.55;61.78
21760;BME280;11041;50.854;20.580;2022-08-21T08:15:26;98161.00;;;24.62;61.31
21760;BME280;11041;50.854;20.580;2022-08-21T08:17:54;98168.97;;;24.67;61.38
21760;BME280;11041;50.854;20.580;2022-08-21T08:20:22;98164.16;;;24.68;61.67
21760;BME280;11041;50.854;20.580;2022-08-21T08:22:49;98160.09;;;24.73;60.88
21760;BME280;11041;50.854;20.580;2022-08-21T08:25:17;98171.56;;;24.82;62.02
21760;BME280;11041;50.854;20.580;2022-08-21T08:27:44;98174.31;;;24.85;61.50
21760;BME280;11041;50.854;20.580;2022-08-21T08:30:13;98161.59;;;24.77;61.83
21760;BME280;11041;50.854;20.580;2022-08-21T08:32:41;98174.31;;;24.85;61.66
21760;BME280;11041;50.854;20.580;2022-08-21T08:35:08;98172.97;;;24.94;61.60
21760;BME280;11041;50.854;20.580;2022-08-21T08:37:36;98164.88;;;24.99;61.63
21760;BME280;11041;50.854;20.580;2022-08-21T08:40:28;98167.13;;;25.08;62.01
21760;BME280;11041;50.854;20.580;2022-08-21T08:42:59;98162.94;;;25.20;62.47
21760;BME280;11041;50.854;20.580;2022-08-21T08:45:26;98164.84;;;25.26;62.51
21760;BME280;11041;50.854;20.580;2022-08-21T08:48:00;98166.16;;;25.42;62.22
21760;BME280;11041;50.854;20.580;2022-08-21T08:50:45;98159.56;;;25.52;61.86
21760;BME280;11041;50.854;20.580;2022-08-21T08:53:31;98150.25;;;25.55;60.23
21760;BME280;11041;50.854;20.580;2022-08-21T08:56:01;98162.25;;;25.59;61.35
21760;BME280;11041;50.854;20.580;2022-08-21T08:58:38;98143.34;;;25.60;60.49
21760;BME280;11041;50.854;20.580;2022-08-21T09:01:19;98149.25;;;25.65;60.63
21760;BME280;11041;50.854;20.580;2022-08-21T09:03:48;98141.19;;;25.67;59.63
21760;BME280;11041;50.854;20.580;2022-08-21T09:12:29;98147.31;;;25.62;60.50
21760;BME280;11041;50.854;20.580;2022-08-21T09:17:59;98144.28;;;25.53;59.58
21760;BME280;11041;50.854;20.580;2022-08-21T09:26:50;98140.81;;;25.45;58.94
21760;BME280;11041;50.854;20.580;2022-08-21T09:29:27;98140.06;;;25.41;60.25
21760;BME280;11041;50.854;20.580;2022-08-21T09:31:56;98133.66;;;25.41;59.61
21760;BME280;11041;50.854;20.580;2022-08-21T09:34:29;98137.69;;;25.40;58.56
21760;BME280;11041;50.854;20.580;2022-08-21T09:36:57;98130.06;;;25.40;59.22
21760;BME280;11041;50.854;20.580;2022-08-21T09:39:32;98131.50;;;25.48;58.32
21760;BME280;11041;50.854;20.580;2022-08-21T09:42:08;98131.78;;;25.54;58.43
21760;BME280;11041;50.854;20.580;2022-08-21T09:44:39;98124.06;;;25.58;58.98
21760;BME280;11041;50.854;20.580;2022-08-21T09:47:11;98119.19;;;25.62;59.54
21760;BME280;11041;50.854;20.580;2022-08-21T09:49:42;98122.63;;;25.70;59.01
21760;BME280;11041;50.854;20.580;2022-08-21T09:52:35;98120.19;;;25.72;57.81
21760;BME280;11041;50.854;20.580;2022-08-21T09:55:23;98121.25;;;25.78;57.85
21760;BME280;11041;50.854;20.580;2022-08-21T09:58:11;98118.09;;;25.76;57.47
21760;BME280;11041;50.854;20.580;2022-08-21T10:00:37;98107.69;;;25.73;56.71
21760;BME280;11041;50.854;20.580;2022-08-21T10:03:20;98118.91;;;25.77;57.13
21760;BME280;11041;50.854;20.580;2022-08-21T10:05:58;98123.13;;;25.85;57.87
21760;BME280;11041;50.854;20.580;2022-08-21T10:08:28;98127.94;;;25.88;57.79
21760;BME280;11041;50.854;20.580;2022-08-21T10:17:22;98115.56;;;25.82;58.20
21760;BME280;11041;50.854;20.580;2022-08-21T10:20:07;98118.81;;;25.80;57.30
21760;BME280;11041;50.854;20.580;2022-08-21T10:34:30;98120.22;;;25.92;58.14
21760;BME280;11041;50.854;20.580;2022-08-21T10:46:14;98119.78;;;25.93;58.06
21760;BME280;11041;50.854;20.580;2022-08-21T10:49:25;98107.88;;;25.86;57.09
21760;BME280;11041;50.854;20.580;2022-08-21T10:54:57;98117.34;;;25.96;58.82
21760;BME280;11041;50.854;20.580;2022-08-21T11:00:50;98119.69;;;25.97;58.06
21760;BME280;11041;50.854;20.580;2022-08-21T11:03:51;98106.88;;;25.96;56.89
21760;BME280;11041;50.854;20.580;2022-08-21T11:06:25;98115.94;;;26.04;55.84
21760;BME280;11041;50.854;20.580;2022-08-21T11:09:02;98113.22;;;26.00;56.42
21760;BME280;11041;50.854;20.580;2022-08-21T11:11:41;98113.50;;;26.06;56.69
21760;BME280;11041;50.854;20.580;2022-08-21T11:15:11;98115.06;;;26.07;56.67
21760;BME280;11041;50.854;20.580;2022-08-21T11:17:43;98113.53;;;26.22;57.58
21760;BME280;11041;50.854;20.580;2022-08-21T11:20:38;98106.25;;;26.25;56.35
21760;BME280;11041;50.854;20.580;2022-08-21T11:23:57;98108.91;;;26.32;55.76
21760;BME280;11041;50.854;20.580;2022-08-21T11:29:58;98108.00;;;26.35;55.51
21760;BME280;11041;50.854;20.580;2022-08-21T11:35:58;98104.69;;;26.40;56.15
21760;BME280;11041;50.854;20.580;2022-08-21T11:38:43;98104.69;;;26.40;55.60
21760;BME280;11041;50.854;20.580;2022-08-21T11:41:59;98110.59;;;26.46;55.48
21760;BME280;11041;50.854;20.580;2022-08-21T11:45:11;98119.75;;;26.50;56.07
21760;BME280;11041;50.854;20.580;2022-08-21T11:51:18;98107.13;;;26.38;55.04
21760;BME280;11041;50.854;20.580;2022-08-21T11:54:25;98113.81;;;26.28;55.54
21760;BME280;11041;50.854;20.580;2022-08-21T11:57:09;98107.91;;;26.22;56.16
21760;BME280;11041;50.854;20.580;2022-08-21T12:03:21;98101.00;;;26.07;55.49
21760;BME280;11041;50.854;20.580;2022-08-21T12:06:00;98100.44;;;25.96;56.27
21760;BME280;11041;50.854;20.580;2022-08-21T12:08:34;98112.13;;;25.94;56.02
21760;BME280;11041;50.854;20.580;2022-08-21T12:11:07;98104.94;;;25.93;56.89
21760;BME280;11041;50.854;20.580;2022-08-21T12:13:40;98108.16;;;25.91;56.78
21760;BME280;11041;50.854;20.580;2022-08-21T12:16:13;98096.13;;;25.91;56.60
21760;BME280;11041;50.854;20.580;2022-08-21T12:18:42;98104.97;;;25.89;57.71
21760;BME280;11041;50.854;20.580;2022-08-21T12:21:28;98101.38;;;25.89;57.15
21760;BME280;11041;50.854;20.580;2022-08-21T12:26:57;98106.13;;;25.92;58.22
21760;BME280;11041;50.854;20.580;2022-08-21T12:29:36;98098.56;;;25.89;57.18
21760;BME280;11041;50.854;20.580;2022-08-21T12:32:46;98098.56;;;25.89;56.80
21760;BME280;11041;50.854;20.580;2022-08-21T12:35:33;98100.16;;;25.90;57.97
21760;BME280;11041;50.854;20.580;2022-08-21T12:38:09;98097.81;;;25.85;57.99
21760;BME280;11041;50.854;20.580;2022-08-21T12:40:44;98094.22;;;25.84;58.18
21760;BME280;11041;50.854;20.580;2022-08-21T12:43:40;98091.78;;;25.86;57.56
21760;BME280;11041;50.854;20.580;2022-08-21T12:47:23;98096.81;;;25.95;59.23
21760;BME280;11041;50.854;20.580;2022-08-21T12:49:33;98095.59;;;25.96;58.87
21760;BME280;11041;50.854;20.580;2022-08-21T12:52:29;98085.56;;;25.95;58.16
21760;BME280;11041;50.854;20.580;2022-08-21T12:54:56;98090.34;;;25.98;58.28
21760;BME280;11041;50.854;20.580;2022-08-21T12:57:28;98075.53;;;25.94;57.77
21760;BME280;11041;50.854;20.580;2022-08-21T13:00:01;98081.91;;;25.98;57.83
21760;BME280;11041;50.854;20.580;2022-08-21T13:02:35;98063.13;;;25.91;56.64
21760;BME280;11041;50.854;20.580;2022-08-21T13:05:06;98077.84;;;25.99;57.17
21760;BME280;11041;50.854;20.580;2022-08-21T13:07:37;98079.78;;;26.02;57.76
21760;BME280;11041;50.854;20.580;2022-08-21T13:10:23;98073.34;;;26.02;58.26
21760;BME280;11041;50.854;20.580;2022-08-21T13:12:56;98082.16;;;26.04;57.29
21760;BME280;11041;50.854;20.580;2022-08-21T13:15:34;98079.78;;;26.02;56.97
21760;BME280;11041;50.854;20.580;2022-08-21T13:18:05;98078.09;;;26.05;56.23
21760;BME280;11041;50.854;20.580;2022-08-21T13:20:38;98085.50;;;25.99;55.64
21760;BME280;11041;50.854;20.580;2022-08-21T13:23:25;98077.13;;;25.95;55.37
21760;BME280;11041;50.854;20.580;2022-08-21T13:25:53;98076.84;;;25.89;56.08
21760;BME280;11041;50.854;20.580;2022-08-21T13:28:21;98087.31;;;25.89;55.23
21760;BME280;11041;50.854;20.580;2022-08-21T13:30:53;98082.16;;;25.84;54.99
21760;BME280;11041;50.854;20.580;2022-08-21T13:33:24;98084.50;;;25.89;56.16
21760;BME280;11041;50.854;20.580;2022-08-21T13:36:05;98092.84;;;25.92;56.23
21760;BME280;11041;50.854;20.580;2022-08-21T13:38:36;98087.69;;;25.91;55.71
21760;BME280;11041;50.854;20.580;2022-08-21T13:41:24;98081.53;;;25.96;55.45
21760;BME280;11041;50.854;20.580;2022-08-21T13:44:21;98082.25;;;26.00;54.73
21760;BME280;11041;50.854;20.580;2022-08-21T13:46:49;98078.25;;;25.98;55.04
21760;BME280;11041;50.854;20.580;2022-08-21T13:49:21;98082.94;;;26.04;54.82
21760;BME280;11041;50.854;20.580;2022-08-21T13:51:51;98069.75;;;26.01;55.16
21760;BME280;11041;50.854;20.580;2022-08-21T13:54:28;98081.75;;;26.05;54.22
21760;BME280;11041;50.854;20.580;2022-08-21T13:56:56;98080.13;;;26.04;54.29
21760;BME280;11041;50.854;20.580;2022-08-21T13:59:34;98084.47;;;26.09;54.57
21760;BME280;11041;50.854;20.580;2022-08-21T14:02:11;98087.22;;;26.12;54.28
21760;BME280;11041;50.854;20.580;2022-08-21T14:04:56;98092.38;;;26.14;54.24
21760;BME280;11041;50.854;20.580;2022-08-21T14:07:32;98091.81;;;26.23;54.53
21760;BME280;11041;50.854;20.580;2022-08-21T14:10:27;98080.53;;;26.23;53.79
21760;BME280;11041;50.854;20.580;2022-08-21T14:13:46;98070.00;;;26.27;54.58
21760;BME280;11041;50.854;20.580;2022-08-21T14:21:35;98075.91;;;26.49;51.13
21760;BME280;11041;50.854;20.580;2022-08-21T14:27:17;98078.59;;;26.56;53.08
21760;BME280;11041;50.854;20.580;2022-08-21T14:30:02;98102.63;;;26.61;51.37
21760;BME280;11041;50.854;20.580;2022-08-21T14:32:40;98076.28;;;26.51;51.47
21760;BME280;11041;50.854;20.580;2022-08-21T14:35:10;98084.72;;;26.51;51.45
21760;BME280;11041;50.854;20.580;2022-08-21T14:37:37;98084.25;;;26.52;51.17
21760;BME280;11041;50.854;20.580;2022-08-21T14:40:20;98076.78;;;26.46;51.17
21760;BME280;11041;50.854;20.580;2022-08-21T14:42:48;98081.72;;;26.42;51.56
21760;BME280;11041;50.854;20.580;2022-08-21T14:45:30;98101.94;;;26.53;52.15
21760;BME280;11041;50.854;20.580;2022-08-21T14:48:02;98107.31;;;26.47;51.89
21760;BME280;11041;50.854;20.580;2022-08-21T14:50:28;98106.28;;;26.41;52.24
21760;BME280;11041;50.854;20.580;2022-08-21T14:52:55;98080.91;;;26.25;52.40
21760;BME280;11041;50.854;20.580;2022-08-21T14:55:27;98106.59;;;26.27;52.02
21760;BME280;11041;50.854;20.580;2022-08-21T14:58:04;98087.56;;;26.14;51.84
21760;BME280;11041;50.854;20.580;2022-08-21T15:00:30;98097.22;;;26.13;51.89
21760;BME280;11041;50.854;20.580;2022-08-21T15:02:57;98104.63;;;26.07;51.88
21760;BME280;11041;50.854;20.580;2022-08-21T15:05:23;98097.91;;;26.01;52.22
21760;BME280;11041;50.854;20.580;2022-08-21T15:07:50;98084.53;;;25.85;52.25